UGTB Airport Information

Runway Information
Runway 13L Length 8202 ft width 196 ft
Elevation 1621 ft Threshold 0 ft Heading 133
Runway 31R Length 8202 ft Width 196 ft
Elevation 1572 ft Threshold 0 ft Heading 313
Runway 13R Length 9843 ft width 147 ft
Elevation 1624 ft Threshold 0 ft Heading 136
Runway 31L Length 9843 ft Width 147 ft
Elevation 1558 ft Threshold 0 ft Heading 316
Airport Frequencies
Type APP Name APP Frequency 127.2 MHZ
Type ATIS Name ATIS Frequency 132.8 MHZ
Type GND Name GND Frequency 119 MHZ
Type TWR Name TWR Frequency 128 MHZ
Airport Navaids
Airport Weather Information & NOTAM
ADDS - METARS form results

(2213 UTC 04 August 2021)
Data provider http://aviationweather.gov/metar/data/
 
METAR text: UGTB 042200Z 31012KT CAVOK 25/18 Q1015 NOSIG
Conditions at: UGTB (TBILISI/NOVO-AL , GE) observed 2200 UTC 04 August 2021
Temperature: 25.0°C (77°F)
Dewpoint: 18.0°C (64°F) [RH = 65%]
Pressure (altimeter): 29.97 inches Hg (1015.0 mb)
Winds: from the NW (310 degrees) at 14 MPH (12 knots; 6.2 m/s)
Visibility: 6 or more miles (10+ km)
Ceiling: ceiling and visibility are OK
Clouds: unknown
Weather: no significant weather observed at this time

METAR text: UGTB 042130Z 32010KT CAVOK 25/18 Q1016 NOSIG
Conditions at: UGTB (TBILISI/NOVO-AL , GE) observed 2130 UTC 04 August 2021
Temperature: 25.0°C (77°F)
Dewpoint: 18.0°C (64°F) [RH = 65%]
Pressure (altimeter): 30.00 inches Hg (1016.0 mb)
Winds: from the NW (320 degrees) at 12 MPH (10 knots; 5.1 m/s)
Visibility: 6 or more miles (10+ km)
Ceiling: ceiling and visibility are OK
Clouds: unknown
Weather: no significant weather observed at this time

Forecast for: UGTB (TBILISI/NOVO-AL , GE)
Text: TAF UGTB 041700Z 0418/0518 VRB02KT CAVOK TX36/0512Z TN21/0502Z
Forecast period: 1800 UTC 04 August 2021 to 1800 UTC 05 August 2021
Forecast type: FROM: standard forecast or significant change
Winds: variable direction winds at 2 MPH (2 knots; 1.0 m/s)
Visibility: 6 or more miles (10+ km)
Ceiling: unknown
Clouds: missing
Weather: no significant weather forecast for this period
Text: TEMPO 0420/0505 32010KT
Forecast period: 2000 UTC 04 August 2021 to 0500 UTC 05 August 2021
Forecast type: TEMPORARY: The following changes expected for less than half the time period
Winds: from the NW (320 degrees) at 12 MPH (10 knots; 5.1 m/s)
Visibility: missing
Ceiling: unknown
Clouds: missing
Weather: no significant weather forecast for this period
Text: TEMPO 0508/0516 14012KT
Forecast period: 0800 to 1600 UTC 05 August 2021
Forecast type: TEMPORARY: The following changes expected for less than half the time period
Winds: from the SE (140 degrees) at 14 MPH (12 knots; 6.2 m/s)
Visibility: missing
Ceiling: unknown
Clouds: missing
Weather: no significant weather forecast for this period